Wilmington International Airport
KILM : now visible

Airfield :











YOU CAN JOIN US ON...

 
LOGIN :

Register | Disclaimer

   EN    FR    IT 

 









Legend :    VFR   Marginal VFR   IFR   Intensive IFR   Very Intensive IFR
Visi :
Ceiling :
>= 8 km
>= 3000ft
5 to 8 km
1000 to 3000 ft
1500m to 5 km
500 to 1000 ft
800 to 1500m
200 to 500 ft
< 800m
< 200 ft
Symbols :   Thunderstorms  Fog  Heavy snow  Heavy precipitations  Wind > 20 kt






- Airport Elevation : 32 ft
- IATA code : ILM


KILM - Wilmington International

CURRENT METAR :
  • 141953Z 26020G25KT 10SM CLR 16/09 A2955 RMK AO2 PK WND 25028/1926 SLP007 T01610089

EXPIRED METARs :
  • 141853Z 24016G20KT 10SM CLR 17/11 A2955 RMK AO2 SLP006 T01670106
  • 141753Z 28010KT 10SM FEW014 15/11 A2955 RMK AO2 SLP006 60005 T01500111 10150 20133 58000
  • 141735Z 27012KT 10SM SCT014 14/11 A2957 RMK AO2 T01440111

TAF KILM
Valid from the 14 at 18:00 until the 15 at 18:00 UTC


141824Z 1418/1518 26010KT P6SM FEW015 SCT200
FM141900 26012G19KT P6SM SCT200
FM150100 27009KT P6SM FEW200



MET'MAP, your aeronautical weather chart ! - Copyright ORBIFLY December 2007 - Disclaimer

ORBIFLY MET'MAP TEAM :

Programming & Development : Alexandra Zaïnal
Concept & original design : Baudouin d'Aumeries
Assistance for programming : Marc-Olivier Méhu
Technical & hardware support : Manuel Goepfert

Contact : metmap@orbifly.com




SOURCES & CREDITS :

   NOAA       Earth
Advisory